South River, New Jersey
Current Conditions -  °F | °C
As of 7:35 AM on Friday 28 Nov 2014 (Local Time) from KLDJ Reporting Station
Clear Clear  
Wind Chill: 27°   Ceiling: Unl
Heat Index: 33°   Visibility: 10mi
Dew Point: 28°   Wind: 6mph
Humidity: 84%   Direction: 310°NW
Pressure: 30.18"   Gusts: NA
Location:  40.45°N, 74.38°W
Report Text: KLDJ 281235Z AUTO 31005KT 10SM CLR 01/M02 A3018 RMK AO2 T00051020
Loading
Personal Weather Stations






























Interactive Weather Map New forecast layout! Learn more

10-Day Weather Forecast

Advertisements
Track Severe Weather on mobile